Time;durP1;ratioP1;P1;durP2;ratioP2;P2;SDS_P1;SDS_P2;PMS_P1;PMS_P2;Temp;Humidity;BMP_temperature;BMP_pressure;BME280_temperature;BME280_humidity;BME280_pressure;Samples;Min_cycle;Max_cycle;Signal;HPM_P1;HPM_P2
2022/04/11 00:01:23;;;;;;;0.47;0.40;;;;;;;;;;5057462;28;20033;-76
2022/04/11 00:03:49;;;;;;;0.50;0.50;;;;;;;;;;5057214;28;20024;-76
2022/04/11 00:06:14;;;;;;;0.30;0.30;;;;;;;;;;5057060;28;20029;-76
2022/04/11 00:08:40;;;;;;;0.90;0.57;;;;;;;;;;5058805;28;20029;-77
2022/04/11 00:11:05;;;;;;;0.50;0.50;;;;;;;;;;5056640;28;20033;-76
2022/04/11 00:13:31;;;;;;;0.52;0.50;;;;;;;;;;5057125;28;20032;-78
2022/04/11 00:15:56;;;;;;;0.30;0.30;;;;;;;;;;5056952;28;20025;-79
2022/04/11 00:18:21;;;;;;;0.20;0.20;;;;;;;;;;5039152;28;20029;-79
2022/04/11 00:20:47;;;;;;;0.40;0.40;;;;;;;;;;5056916;28;20367;-76
2022/04/11 00:23:13;;;;;;;0.20;0.20;;;;;;;;;;5057348;28;20112;-77
2022/04/11 00:25:39;;;;;;;0.40;0.40;;;;;;;;;;5056549;28;20040;-77
2022/04/11 00:28:04;;;;;;;0.57;0.32;;;;;;;;;;5057645;28;20029;-76
2022/04/11 00:30:30;;;;;;;0.40;0.40;;;;;;;;;;5058412;28;20044;-77
2022/04/11 00:32:55;;;;;;;0.22;0.20;;;;;;;;;;5056657;28;20028;-78
2022/04/11 00:35:21;;;;;;;0.40;0.40;;;;;;;;;;5038849;28;20039;-77
2022/04/11 00:37:46;;;;;;;0.57;0.40;;;;;;;;;;5022191;28;20041;-78
2022/04/11 00:40:12;;;;;;;1.48;0.28;;;;;;;;;;5055200;28;20373;-77
2022/04/11 00:42:37;;;;;;;0.75;0.60;;;;;;;;;;5038578;28;20049;-78
2022/04/11 00:45:03;;;;;;;0.30;0.30;;;;;;;;;;5056403;28;20397;-78
2022/04/11 00:47:29;;;;;;;0.30;0.28;;;;;;;;;;5056781;28;20029;-78
2022/04/11 00:49:56;;;;;;;1.20;0.52;;;;;;;;;;5038621;28;20121;-77
2022/04/11 00:52:21;;;;;;;0.68;0.32;;;;;;;;;;5055215;28;20029;-78
2022/04/11 00:54:47;;;;;;;0.17;0.17;;;;;;;;;;5038525;28;20465;-78
2022/04/11 00:57:13;;;;;;;0.20;0.20;;;;;;;;;;5056169;28;20120;-78
2022/04/11 00:59:38;;;;;;;0.30;0.28;;;;;;;;;;5038500;28;20025;-78
2022/04/11 01:02:04;;;;;;;0.50;0.13;;;;;;;;;;5038587;28;20032;-78
2022/04/11 01:04:30;;;;;;;0.35;0.35;;;;;;;;;;5056378;28;20036;-78
2022/04/11 01:06:59;;;;;;;0.20;0.20;;;;;;;;;;5056110;28;20021;-78
2022/04/11 01:09:24;;;;;;;1.25;0.50;;;;;;;;;;5060946;28;20025;-78
2022/04/11 01:11:50;;;;;;;0.45;0.32;;;;;;;;;;5059179;28;20021;-78
2022/04/11 01:14:16;;;;;;;0.30;0.30;;;;;;;;;;5056176;28;20052;-78
2022/04/11 01:16:51;;;;;;;0.82;0.50;;;;;;;;;;5055777;28;20158;-78
2022/04/11 01:19:17;;;;;;;0.32;0.30;;;;;;;;;;5055965;28;20051;-78
2022/04/11 01:21:43;;;;;;;0.73;0.47;;;;;;;;;;5038015;28;20021;-78
2022/04/11 01:24:09;;;;;;;0.22;0.20;;;;;;;;;;5055413;28;20025;-78
2022/04/11 01:26:34;;;;;;;0.30;0.30;;;;;;;;;;5055868;28;20459;-78
2022/04/11 01:29:00;;;;;;;0.10;0.10;;;;;;;;;;5038583;28;20032;-78
2022/04/11 01:31:25;;;;;;;0.28;0.20;;;;;;;;;;5061747;28;20508;-78
2022/04/11 01:33:51;;;;;;;0.05;0.05;;;;;;;;;;5055544;28;20033;-78
2022/04/11 01:36:16;;;;;;;0.00;0.00;;;;;;;;;;5055543;28;20029;-78
2022/04/11 01:38:42;;;;;;;1.50;0.20;;;;;;;;;;5055312;28;20378;-78
2022/04/11 01:41:08;;;;;;;0.10;0.10;;;;;;;;;;5055214;28;20056;-78
2022/04/11 01:43:33;;;;;;;0.17;0.17;;;;;;;;;;5054455;28;20057;-78
2022/04/11 01:45:58;;;;;;;0.50;0.50;;;;;;;;;;5055263;28;20029;-78
2022/04/11 01:48:24;;;;;;;0.30;0.30;;;;;;;;;;5055487;28;20098;-79
2022/04/11 01:50:49;;;;;;;0.45;0.30;;;;;;;;;;5058337;28;20087;-77
2022/04/11 01:53:17;;;;;;;0.43;0.32;;;;;;;;;;5055152;28;20043;-78
2022/04/11 01:55:42;;;;;;;2.25;0.20;;;;;;;;;;5055399;28;20044;-78
2022/04/11 01:58:08;;;;;;;1.15;0.40;;;;;;;;;;5054955;28;20102;-78
2022/04/11 02:00:34;;;;;;;0.70;0.60;;;;;;;;;;5054971;28;20123;-78
2022/04/11 02:03:00;;;;;;;0.68;0.55;;;;;;;;;;5037186;28;20025;-78
2022/04/11 02:05:26;;;;;;;0.77;0.77;;;;;;;;;;5037166;28;20029;-78
2022/04/11 02:07:52;;;;;;;0.75;0.75;;;;;;;;;;5054596;28;20025;-78
2022/04/11 02:10:17;;;;;;;0.73;0.50;;;;;;;;;;5055127;28;20033;-78
2022/04/11 02:12:43;;;;;;;0.63;0.60;;;;;;;;;;5060324;28;20033;-78
2022/04/11 02:15:09;;;;;;;0.52;0.52;;;;;;;;;;5054750;28;20035;-78
2022/04/11 02:17:34;;;;;;;0.30;0.30;;;;;;;;;;5037302;28;20033;-78
2022/04/11 02:20:00;;;;;;;0.30;0.25;;;;;;;;;;5054671;28;20043;-78
2022/04/11 02:22:25;;;;;;;0.32;0.32;;;;;;;;;;5036614;28;20029;-79
2022/04/11 02:24:51;;;;;;;0.68;0.50;;;;;;;;;;5036710;28;20534;-79
2022/04/11 02:27:16;;;;;;;2.45;0.65;;;;;;;;;;5020557;28;20439;-78
2022/04/11 02:29:42;;;;;;;0.70;0.68;;;;;;;;;;5054530;28;20029;-78
2022/04/11 02:32:07;;;;;;;0.40;0.40;;;;;;;;;;5054658;28;20036;-78
2022/04/11 02:34:33;;;;;;;0.95;0.60;;;;;;;;;;5036646;28;20064;-78
2022/04/11 02:36:58;;;;;;;0.80;0.80;;;;;;;;;;5036431;28;20079;-78
2022/04/11 02:39:24;;;;;;;1.17;0.90;;;;;;;;;;5036527;28;20032;-78
2022/04/11 02:41:49;;;;;;;1.52;0.98;;;;;;;;;;5054188;28;20401;-78
2022/04/11 02:44:15;;;;;;;0.98;0.75;;;;;;;;;;5054551;28;20029;-78
2022/04/11 02:46:44;;;;;;;1.50;1.10;;;;;;;;;;5054170;28;20434;-78
2022/04/11 02:49:10;;;;;;;2.13;1.10;;;;;;;;;;5054452;28;20032;-78
2022/04/11 02:51:35;;;;;;;1.58;1.00;;;;;;;;;;5055906;28;20416;-78
2022/04/11 02:54:07;;;;;;;1.13;1.02;;;;;;;;;;5036788;28;20029;-78
2022/04/11 02:56:35;;;;;;;1.10;0.88;;;;;;;;;;5054060;28;20493;-78
2022/04/11 02:59:01;;;;;;;1.10;0.98;;;;;;;;;;5054084;28;20025;-78
2022/04/11 03:01:26;;;;;;;3.28;2.00;;;;;;;;;;5054057;28;20369;-78
2022/04/11 03:03:52;;;;;;;6.47;2.88;;;;;;;;;;5053910;28;20068;-78
2022/04/11 03:06:17;;;;;;;7.45;4.00;;;;;;;;;;5054250;28;20029;-79
2022/04/11 03:08:43;;;;;;;6.53;3.35;;;;;;;;;;5054014;28;20099;-78
2022/04/11 03:11:08;;;;;;;5.90;3.55;;;;;;;;;;5053900;28;20036;-78
2022/04/11 03:13:34;;;;;;;9.38;4.53;;;;;;;;;;5059842;28;20047;-78
2022/04/11 03:15:59;;;;;;;8.50;4.47;;;;;;;;;;5036373;28;20434;-78
2022/04/11 03:18:25;;;;;;;5.47;4.10;;;;;;;;;;5053737;28;20082;-78
2022/04/11 03:20:50;;;;;;;7.03;4.07;;;;;;;;;;5053934;28;20025;-78
2022/04/11 03:23:16;;;;;;;4.13;3.13;;;;;;;;;;5036263;28;20112;-78
2022/04/11 03:25:41;;;;;;;5.05;3.65;;;;;;;;;;5053855;28;20359;-78
2022/04/11 03:28:07;;;;;;;5.30;3.38;;;;;;;;;;5054045;28;20067;-78
2022/04/11 03:30:32;;;;;;;4.80;2.85;;;;;;;;;;5062890;28;20107;-78
2022/04/11 03:32:58;;;;;;;4.18;2.92;;;;;;;;;;5048383;28;20421;-79
2022/04/11 03:35:23;;;;;;;3.90;2.53;;;;;;;;;;5068411;28;20036;-78
2022/04/11 03:37:49;;;;;;;5.18;2.53;;;;;;;;;;5070760;28;20075;-77
2022/04/11 03:40:14;;;;;;;5.18;3.00;;;;;;;;;;5071567;28;20048;-78
2022/04/11 03:42:40;;;;;;;4.32;3.03;;;;;;;;;;5072893;28;20041;-78
2022/04/11 03:45:09;;;;;;;7.20;2.88;;;;;;;;;;5066776;28;20067;-77
2022/04/11 03:47:34;;;;;;;5.72;2.50;;;;;;;;;;5053435;28;20033;-78
2022/04/11 03:50:00;;;;;;;6.88;3.10;;;;;;;;;;5053571;28;20036;-78
2022/04/11 03:52:25;;;;;;;4.60;3.10;;;;;;;;;;5055021;28;20438;-78
2022/04/11 03:54:51;;;;;;;7.00;3.15;;;;;;;;;;5053976;28;20029;-78
2022/04/11 03:57:16;;;;;;;4.60;2.88;;;;;;;;;;5053846;28;20186;-78
2022/04/11 03:59:42;;;;;;;4.60;2.78;;;;;;;;;;5035845;28;20511;-78
2022/04/11 04:02:07;;;;;;;5.68;3.08;;;;;;;;;;5053538;28;20028;-78
2022/04/11 04:04:33;;;;;;;8.68;3.15;;;;;;;;;;5053651;28;20435;-77
2022/04/11 04:06:58;;;;;;;6.65;3.60;;;;;;;;;;5055740;28;20114;-80
2022/04/11 04:09:23;;;;;;;6.40;3.53;;;;;;;;;;5039541;28;20040;-81
2022/04/11 04:11:49;;;;;;;6.55;3.75;;;;;;;;;;5057068;28;20032;-77
2022/04/11 04:14:14;;;;;;;7.30;3.75;;;;;;;;;;5057890;28;20029;-77
2022/04/11 04:16:40;;;;;;;7.88;3.53;;;;;;;;;;5057896;28;20025;-78
2022/04/11 04:19:05;;;;;;;6.25;3.58;;;;;;;;;;5056967;28;20162;-78
2022/04/11 04:21:31;;;;;;;8.68;3.80;;;;;;;;;;5056741;28;20071;-78
2022/04/11 04:23:56;;;;;;;7.18;3.90;;;;;;;;;;5056725;28;20029;-77
2022/04/11 04:26:22;;;;;;;6.70;4.38;;;;;;;;;;5056753;28;20397;-77
2022/04/11 04:28:47;;;;;;;7.07;3.90;;;;;;;;;;5058248;28;20096;-78
2022/04/11 04:31:13;;;;;;;10.23;5.40;;;;;;;;;;5058304;28;20060;-78
2022/04/11 04:33:38;;;;;;;16.50;6.45;;;;;;;;;;5056745;28;20098;-78
2022/04/11 04:36:04;;;;;;;15.63;7.00;;;;;;;;;;5060544;28;20033;-79
2022/04/11 04:38:30;;;;;;;15.38;7.75;;;;;;;;;;5056439;28;20122;-79
2022/04/11 04:40:58;;;;;;;12.50;7.55;;;;;;;;;;5038433;28;20111;-79
2022/04/11 04:43:23;;;;;;;12.65;6.28;;;;;;;;;;5038411;28;20032;-77
2022/04/11 04:45:49;;;;;;;21.77;7.20;;;;;;;;;;5057729;28;20029;-78
2022/04/11 04:48:14;;;;;;;12.30;5.38;;;;;;;;;;5055343;28;20543;-76
2022/04/11 04:50:40;;;;;;;12.70;4.68;;;;;;;;;;5053732;28;20040;-78
2022/04/11 04:53:06;;;;;;;7.78;4.13;;;;;;;;;;5053474;28;20053;-78
2022/04/11 04:55:32;;;;;;;7.22;3.83;;;;;;;;;;5044694;28;20383;-77
2022/04/11 04:57:58;;;;;;;5.30;3.20;;;;;;;;;;5055741;28;20036;-80
2022/04/11 05:00:24;;;;;;;10.40;5.13;;;;;;;;;;5047438;28;20128;-77
2022/04/11 05:02:49;;;;;;;8.63;4.18;;;;;;;;;;5049241;28;20145;-77
2022/04/11 05:05:15;;;;;;;8.48;4.22;;;;;;;;;;5049860;28;20366;-77
2022/04/11 05:07:41;;;;;;;10.75;4.93;;;;;;;;;;5029088;28;20068;-75
2022/04/11 05:10:08;;;;;;;8.27;3.88;;;;;;;;;;5050756;28;20059;-75
2022/04/11 05:12:41;;;;;;;12.48;4.18;;;;;;;;;;5031875;28;20033;-74
2022/04/11 05:15:07;;;;;;;10.55;3.65;;;;;;;;;;5055009;28;20032;-77
2022/04/11 05:17:32;;;;;;;7.65;3.83;;;;;;;;;;5056046;28;20029;-77
2022/04/11 05:19:58;;;;;;;7.28;3.70;;;;;;;;;;5056020;28;20086;-75
2022/04/11 05:22:23;;;;;;;6.50;3.55;;;;;;;;;;5053440;28;20028;-75
2022/04/11 05:24:49;;;;;;;8.40;3.78;;;;;;;;;;5016837;28;20095;-76
2022/04/11 05:27:14;;;;;;;9.70;4.50;;;;;;;;;;5034679;28;20032;-78
2022/04/11 05:29:40;;;;;;;7.85;3.92;;;;;;;;;;5054183;28;20040;-78
2022/04/11 05:32:06;;;;;;;12.90;4.30;;;;;;;;;;5035790;28;20541;-78
2022/04/11 05:34:32;;;;;;;10.10;4.47;;;;;;;;;;5053320;28;20033;-74
2022/04/11 05:36:58;;;;;;;9.48;4.90;;;;;;;;;;5044917;28;20100;-74
2022/04/11 05:39:23;;;;;;;9.48;4.65;;;;;;;;;;5049330;28;20466;-74
2022/04/11 05:41:49;;;;;;;12.63;5.35;;;;;;;;;;5049095;28;20100;-74
2022/04/11 05:44:14;;;;;;;11.57;5.35;;;;;;;;;;5049885;28;20036;-74
2022/04/11 05:46:53;;;;;;;9.68;4.80;;;;;;;;;;5028014;28;20037;-72
2022/04/11 05:49:20;;;;;;;8.38;3.70;;;;;;;;;;5027151;28;20047;-73
2022/04/11 05:51:46;;;;;;;6.13;3.30;;;;;;;;;;5053298;28;20056;-70
2022/04/11 05:54:11;;;;;;;9.63;3.25;;;;;;;;;;5055926;28;20461;-72
2022/04/11 05:56:37;;;;;;;6.60;2.85;;;;;;;;;;5050085;28;20032;-72
2022/04/11 05:59:03;;;;;;;5.28;2.97;;;;;;;;;;5059060;28;20029;-75
2022/04/11 06:01:32;;;;;;;6.10;2.92;;;;;;;;;;5046322;28;20082;-74
2022/04/11 06:03:58;;;;;;;6.35;3.30;;;;;;;;;;5054993;28;20044;-72
2022/04/11 06:06:23;;;;;;;6.63;3.70;;;;;;;;;;5051919;28;20029;-76
2022/04/11 06:08:49;;;;;;;7.53;3.03;;;;;;;;;;5054980;28;20042;-73
2022/04/11 06:11:14;;;;;;;6.15;3.38;;;;;;;;;;5043746;28;20036;-74
2022/04/11 06:13:45;;;;;;;7.30;3.80;;;;;;;;;;5058105;28;20039;-74
2022/04/11 06:16:11;;;;;;;7.25;3.83;;;;;;;;;;5062674;28;20039;-73
2022/04/11 06:18:37;;;;;;;7.88;3.65;;;;;;;;;;5071094;28;20021;-72
2022/04/11 06:21:03;;;;;;;7.55;3.80;;;;;;;;;;5060938;28;20029;-73
2022/04/11 06:23:28;;;;;;;6.70;3.45;;;;;;;;;;5049595;28;20029;-74
2022/04/11 06:33:18;;;;;;;7.43;3.83;;;;;;;;;;5085092;22;20136;-82
2022/04/11 06:35:49;;;;;;;9.50;4.10;;;;;;;;;;5037410;28;20036;-82
2022/04/11 06:38:30;;;;;;;5.80;3.53;;;;;;;;;;5083175;22;20457;-80
2022/04/11 06:41:11;;;;;;;14.93;5.35;;;;;;;;;;5086164;28;20159;-85
2022/04/11 06:43:42;;;;;;;11.05;4.32;;;;;;;;;;5091721;28;20036;-86
2022/04/11 06:46:19;;;;;;;5.40;3.10;;;;;;;;;;5106302;28;20113;-86
2022/04/11 06:48:44;;;;;;;5.55;2.90;;;;;;;;;;5092559;28;20024;-78
2022/04/11 06:51:10;;;;;;;9.27;3.60;;;;;;;;;;5090829;28;20667;-80
2022/04/11 06:53:35;;;;;;;8.02;3.13;;;;;;;;;;5089966;28;20077;-79
2022/04/11 06:56:00;;;;;;;5.45;3.42;;;;;;;;;;5092701;28;20028;-81
2022/04/11 06:58:26;;;;;;;8.10;4.50;;;;;;;;;;5095312;28;20035;-79
2022/04/11 07:00:51;;;;;;;6.63;3.45;;;;;;;;;;5092302;28;20051;-79
2022/04/11 07:03:17;;;;;;;4.85;3.25;;;;;;;;;;5091809;28;20031;-82
2022/04/11 07:05:43;;;;;;;11.43;4.00;;;;;;;;;;5092658;28;20070;-79
2022/04/11 07:08:09;;;;;;;4.82;3.53;;;;;;;;;;5059481;28;20043;-83
2022/04/11 07:10:34;;;;;;;4.65;3.50;;;;;;;;;;5107998;28;20025;-79
2022/04/11 07:13:00;;;;;;;6.18;2.95;;;;;;;;;;5093053;28;20024;-81
2022/04/11 07:15:46;;;;;;;9.52;5.53;;;;;;;;;;5076005;28;20033;-79
2022/04/11 07:19:01;;;;;;;17.10;7.65;;;;;;;;;;5085732;28;20390;-81
2022/04/11 07:21:27;;;;;;;7.00;2.90;;;;;;;;;;5095395;28;20080;-81
2022/04/11 07:23:53;;;;;;;5.88;3.00;;;;;;;;;;5110688;28;20024;-82
2022/04/11 07:26:18;;;;;;;3.53;2.50;;;;;;;;;;5076971;28;20028;-81
2022/04/11 07:28:50;;;;;;;7.05;4.20;;;;;;;;;;5095974;28;20024;-81
2022/04/11 07:31:18;;;;;;;7.68;4.03;;;;;;;;;;5076880;28;20043;-81
2022/04/11 07:33:59;;;;;;;5.22;3.30;;;;;;;;;;5104192;28;20202;-83
2022/04/11 07:36:31;;;;;;;5.05;3.20;;;;;;;;;;5080759;28;20024;-83
2022/04/11 07:38:56;;;;;;;5.35;3.35;;;;;;;;;;5058461;28;20067;-84
2022/04/11 07:41:23;;;;;;;4.90;3.08;;;;;;;;;;5073838;28;20455;-82
2022/04/11 07:43:51;;;;;;;4.28;2.83;;;;;;;;;;5076420;28;20032;-79
2022/04/11 07:46:16;;;;;;;6.05;3.05;;;;;;;;;;5076627;28;20069;-84
2022/04/11 07:48:42;;;;;;;7.20;3.03;;;;;;;;;;5076483;28;20051;-83
2022/04/11 07:51:11;;;;;;;4.57;2.90;;;;;;;;;;5098250;28;20316;-83
2022/04/11 07:53:46;;;;;;;5.28;2.65;;;;;;;;;;5070588;28;20112;-82
2022/04/11 07:56:11;;;;;;;6.40;3.05;;;;;;;;;;5080081;28;20051;-82
2022/04/11 07:58:49;;;;;;;5.28;3.53;;;;;;;;;;5114105;28;20032;-84
2022/04/11 08:01:16;;;;;;;6.97;3.17;;;;;;;;;;5093344;28;20028;-79
2022/04/11 08:03:48;;;;;;;6.35;2.97;;;;;;;;;;5081130;28;20130;-84
2022/04/11 08:06:51;;;;;;;5.28;3.20;;;;;;;;;;5065043;28;20028;-84
2022/04/11 08:09:20;;;;;;;4.55;3.00;;;;;;;;;;5095888;28;20107;-87
2022/04/11 08:17:22;;;;;;;8.38;4.43;;;;;;;;;;5162227;22;20111;-85
2022/04/11 08:20:15;;;;;;;12.35;5.55;;;;;;;;;;5064744;28;20056;-87
2022/04/11 08:23:12;;;;;;;;;;;;;;;;;;;;;
2022/04/11 08:25:40;;;;;;;8.02;4.90;;;;;;;;;;5064565;28;20123;-83
2022/04/11 08:28:06;;;;;;;7.80;4.32;;;;;;;;;;5070234;28;20402;-83
2022/04/11 08:30:32;;;;;;;4.13;3.45;;;;;;;;;;5091147;28;20044;-83
2022/04/11 08:33:04;;;;;;;8.13;4.47;;;;;;;;;;5099846;28;20024;-82
2022/04/11 08:35:33;;;;;;;7.85;3.97;;;;;;;;;;5082594;28;20036;-83
2022/04/11 08:38:00;;;;;;;8.00;3.53;;;;;;;;;;5084875;28;20493;-87
2022/04/11 08:40:26;;;;;;;5.63;4.00;;;;;;;;;;5103420;28;20039;-84
2022/04/11 08:46:27;;;;;;;4.40;3.03;;;;;;;;;;5094415;28;20124;-82
2022/04/11 08:57:54;;;;;;;5.18;2.55;;;;;;;;;;5128815;22;20180;-81
2022/04/11 09:00:21;;;;;;;6.18;3.22;;;;;;;;;;5062929;28;20082;-84
2022/04/11 09:08:50;;;;;;;13.65;8.43;;;;;;;;;;5089053;22;20048;-82
2022/04/11 09:11:32;;;;;;;5.78;2.45;;;;;;;;;;5050868;28;20037;-78
2022/04/11 09:14:00;;;;;;;2.65;2.17;;;;;;;;;;5052790;28;20045;-81
2022/04/11 09:16:29;;;;;;;4.23;2.50;;;;;;;;;;5047146;28;20063;-82
2022/04/11 09:18:55;;;;;;;3.08;2.03;;;;;;;;;;5049251;28;20322;-80
2022/04/11 09:21:23;;;;;;;4.18;2.53;;;;;;;;;;5068145;28;20024;-80
2022/04/11 09:23:48;;;;;;;3.45;2.30;;;;;;;;;;5087184;22;20128;-80
2022/04/11 09:26:23;;;;;;;4.40;2.47;;;;;;;;;;5095743;28;20518;-78
2022/04/11 09:29:04;;;;;;;5.35;3.00;;;;;;;;;;5076620;28;20367;-79
2022/04/11 09:31:30;;;;;;;9.65;5.32;;;;;;;;;;5077912;28;20073;-76
2022/04/11 09:33:56;;;;;;;7.30;4.45;;;;;;;;;;5061116;28;20031;-80
2022/04/11 09:36:22;;;;;;;11.07;6.32;;;;;;;;;;5057937;28;20162;-80
2022/04/11 09:39:05;;;;;;;5.95;4.43;;;;;;;;;;5070425;28;20044;-82
2022/04/11 09:41:34;;;;;;;10.93;6.35;;;;;;;;;;5042635;28;20036;-84
2022/04/11 09:44:22;;;;;;;15.63;9.10;;;;;;;;;;5066703;28;20035;-80
2022/04/11 09:47:17;;;;;;;13.43;6.95;;;;;;;;;;5086785;28;20075;-86
2022/04/11 09:49:42;;;;;;;12.52;6.18;;;;;;;;;;5025020;28;20473;-81
2022/04/11 09:52:12;;;;;;;7.45;4.88;;;;;;;;;;5075230;22;21216;-81
2022/04/11 09:54:45;;;;;;;8.55;4.10;;;;;;;;;;5087862;28;20380;-83
2022/04/11 09:57:18;;;;;;;6.75;3.40;;;;;;;;;;5066714;28;20078;-82
2022/04/11 10:00:12;;;;;;;5.68;3.20;;;;;;;;;;5082074;28;20047;-78
2022/04/11 10:02:38;;;;;;;2.63;2.20;;;;;;;;;;5072274;22;20178;-78
2022/04/11 10:05:04;;;;;;;3.70;2.20;;;;;;;;;;5036669;28;20119;-79
2022/04/11 10:07:30;;;;;;;7.28;3.35;;;;;;;;;;5047843;28;20023;-79
2022/04/11 10:09:56;;;;;;;4.30;2.40;;;;;;;;;;5091982;28;20024;-79
2022/04/11 10:12:22;;;;;;;5.68;2.15;;;;;;;;;;5076919;28;20050;-83
2022/04/11 10:14:47;;;;;;;3.22;2.20;;;;;;;;;;5076022;28;20055;-78
2022/04/11 10:17:13;;;;;;;5.55;2.47;;;;;;;;;;5057026;28;20093;-78
2022/04/11 10:19:39;;;;;;;3.13;2.50;;;;;;;;;;5100297;28;20050;-79
2022/04/11 10:22:17;;;;;;;2.85;2.10;;;;;;;;;;5039883;28;20042;-80
2022/04/11 10:36:36;;;;;;;4.53;3.03;;;;;;;;;;5048859;22;20098;-82
2022/04/11 10:39:39;;;;;;;3.65;2.58;;;;;;;;;;5088230;28;20036;-79
2022/04/11 10:42:20;;;;;;;2.60;2.17;;;;;;;;;;5106276;28;20098;-80
2022/04/11 10:44:50;;;;;;;4.93;2.85;;;;;;;;;;5107902;28;20039;-78
2022/04/11 10:47:16;;;;;;;3.47;2.38;;;;;;;;;;5110383;28;20034;-80
2022/04/11 10:49:44;;;;;;;5.93;2.10;;;;;;;;;;5109354;28;20031;-77
2022/04/11 10:52:28;;;;;;;4.75;2.38;;;;;;;;;;5116287;27;20453;-76
2022/04/11 10:55:16;;;;;;;4.28;2.17;;;;;;;;;;5110804;28;20084;-76
2022/04/11 10:57:55;;;;;;;4.35;2.40;;;;;;;;;;5093743;28;20053;-75
2022/04/11 11:00:39;;;;;;;3.15;1.95;;;;;;;;;;5111660;28;20034;-78
2022/04/11 11:03:09;;;;;;;3.08;2.00;;;;;;;;;;5076836;28;20064;-78
2022/04/11 11:05:36;;;;;;;3.20;2.30;;;;;;;;;;5079647;27;20091;-78
2022/04/11 11:08:11;;;;;;;2.65;2.00;;;;;;;;;;5112484;27;20054;-78
2022/04/11 11:11:21;;;;;;;5.03;2.20;;;;;;;;;;5114154;28;20084;-78
2022/04/11 11:13:47;;;;;;;5.18;2.50;;;;;;;;;;5030394;28;20243;-82
2022/04/11 11:16:14;;;;;;;3.38;2.05;;;;;;;;;;5080523;28;20039;-79
2022/04/11 11:18:55;;;;;;;4.72;2.35;;;;;;;;;;5115869;28;20373;-78
2022/04/11 11:24:23;;;;;;;8.55;3.75;;;;;;;;;;5122428;28;20131;-77
2022/04/11 11:27:30;;;;;;;8.68;4.18;;;;;;;;;;5078778;28;20052;-78
2022/04/11 11:30:19;;;;;;;4.38;2.78;;;;;;;;;;5115671;27;20050;-80
2022/04/11 11:32:47;;;;;;;4.72;2.42;;;;;;;;;;5085881;28;20040;-84
2022/04/11 11:35:12;;;;;;;5.05;2.58;;;;;;;;;;5101758;28;20141;-85
2022/04/11 11:37:38;;;;;;;9.57;5.30;;;;;;;;;;5063006;28;20122;-90
2022/04/11 11:40:12;;;;;;;7.05;3.88;;;;;;;;;;5101070;28;20035;-80
2022/04/11 11:45:03;;;;;;;3.78;2.47;;;;;;;;;;5124599;22;20056;-83
2022/04/11 11:47:29;;;;;;;6.35;2.08;;;;;;;;;;5080644;28;20120;-79
2022/04/11 11:50:05;;;;;;;3.40;2.70;;;;;;;;;;5097334;28;20055;-83
2022/04/11 11:52:31;;;;;;;4.63;2.63;;;;;;;;;;5082021;28;20055;-83
2022/04/11 11:54:56;;;;;;;5.75;2.65;;;;;;;;;;5098137;28;20449;-78
2022/04/11 11:57:26;;;;;;;4.78;2.80;;;;;;;;;;5098870;28;20133;-78
2022/04/11 12:00:02;;;;;;;5.00;2.30;;;;;;;;;;5083777;28;20448;-84
2022/04/11 12:05:21;;;;;;;4.78;2.28;;;;;;;;;;5074519;28;20032;-80
2022/04/11 12:08:13;;;;;;;9.87;2.37;;;;;;;;;;5099195;28;20540;-81
2022/04/11 12:10:42;;;;;;;3.38;2.20;;;;;;;;;;5090853;28;20514;-81
2022/04/11 12:13:07;;;;;;;2.78;1.77;;;;;;;;;;5082884;28;20071;-83
2022/04/11 12:15:34;;;;;;;3.90;2.22;;;;;;;;;;5086285;28;20115;-81
2022/04/11 12:18:04;;;;;;;4.60;1.95;;;;;;;;;;5100906;28;20056;-81
2022/04/11 12:20:30;;;;;;;3.42;2.15;;;;;;;;;;5100372;28;20027;-80
2022/04/11 12:23:14;;;;;;;2.90;2.05;;;;;;;;;;5101200;28;20114;-85
2022/04/11 12:25:50;;;;;;;7.35;2.20;;;;;;;;;;5099254;28;20701;-84
2022/04/11 12:28:27;;;;;;;20.88;11.02;;;;;;;;;;5077759;28;20646;-84
2022/04/11 12:31:01;;;;;;;6.95;3.85;;;;;;;;;;5096322;28;20496;-84
2022/04/11 12:33:38;;;;;;;5.68;2.72;;;;;;;;;;5098892;28;20510;-79
2022/04/11 12:36:14;;;;;;;5.10;2.70;;;;;;;;;;5129383;27;20023;-79
2022/04/11 12:38:47;;;;;;;3.35;2.20;;;;;;;;;;5097343;28;20066;-81
2022/04/11 12:41:34;;;;;;;2.45;1.80;;;;;;;;;;5101781;28;20063;-80
2022/04/11 12:44:14;;;;;;;3.85;2.40;;;;;;;;;;5094138;28;20079;-79
2022/04/11 12:46:44;;;;;;;4.05;2.30;;;;;;;;;;5128755;27;20028;-78
2022/04/11 12:49:12;;;;;;;2.22;1.70;;;;;;;;;;5095507;28;20492;-79
2022/04/11 12:51:38;;;;;;;5.05;2.08;;;;;;;;;;5078718;28;20032;-76
2022/04/11 12:54:10;;;;;;;3.78;1.70;;;;;;;;;;5095235;28;20105;-77
2022/04/11 12:56:42;;;;;;;3.65;1.98;;;;;;;;;;5095391;28;20024;-78
2022/04/11 12:59:08;;;;;;;3.08;1.90;;;;;;;;;;5095314;28;20089;-77
2022/04/11 13:01:56;;;;;;;2.20;1.85;;;;;;;;;;5097373;28;20028;-79
2022/04/11 13:04:21;;;;;;;3.50;1.90;;;;;;;;;;5096841;28;20028;-80
2022/04/11 13:06:48;;;;;;;5.93;3.75;;;;;;;;;;5095027;28;20027;-78
2022/04/11 13:09:13;;;;;;;4.60;2.75;;;;;;;;;;5095113;28;20028;-79
2022/04/11 13:11:45;;;;;;;3.33;2.40;;;;;;;;;;5096618;28;20104;-80
2022/04/11 13:14:11;;;;;;;4.70;2.33;;;;;;;;;;5095140;28;20032;-79
2022/04/11 13:19:20;;;;;;;3.80;1.85;;;;;;;;;;5095155;28;20485;-79
2022/04/11 13:21:46;;;;;;;3.58;2.00;;;;;;;;;;5082146;28;20027;-79
2022/04/11 13:24:12;;;;;;;3.50;2.17;;;;;;;;;;5079382;28;20114;-77
2022/04/11 13:26:39;;;;;;;4.40;2.58;;;;;;;;;;5096357;28;20118;-81
2022/04/11 13:29:05;;;;;;;4.00;2.40;;;;;;;;;;5077970;28;20044;-79
2022/04/11 13:31:30;;;;;;;5.80;2.78;;;;;;;;;;5077894;28;20046;-80
2022/04/11 13:33:55;;;;;;;6.25;2.88;;;;;;;;;;5094922;28;20038;-80
2022/04/11 13:36:21;;;;;;;5.57;2.45;;;;;;;;;;5096379;28;20036;-80
2022/04/11 13:38:46;;;;;;;5.28;2.92;;;;;;;;;;5094859;28;20421;-79
2022/04/11 13:41:12;;;;;;;5.15;2.72;;;;;;;;;;5098092;28;20078;-81
2022/04/11 13:43:38;;;;;;;7.20;3.28;;;;;;;;;;5101522;28;20404;-79
2022/04/11 13:46:03;;;;;;;4.93;2.33;;;;;;;;;;5094450;28;20023;-80
2022/04/11 13:48:29;;;;;;;4.00;2.80;;;;;;;;;;5094466;28;20463;-79
2022/04/11 13:50:54;;;;;;;3.97;2.60;;;;;;;;;;5094420;28;20028;-79
2022/04/11 13:53:20;;;;;;;2.25;2.03;;;;;;;;;;5096075;28;20059;-81
2022/04/11 13:55:45;;;;;;;4.57;2.80;;;;;;;;;;5095632;28;20031;-81
2022/04/11 13:58:14;;;;;;;9.30;5.20;;;;;;;;;;5094064;28;20028;-84
2022/04/11 14:00:41;;;;;;;7.18;4.35;;;;;;;;;;5095351;28;20043;-79
2022/04/11 14:03:07;;;;;;;11.40;6.93;;;;;;;;;;5095743;28;20043;-79
2022/04/11 14:05:33;;;;;;;2.97;1.85;;;;;;;;;;5096507;28;20302;-80
2022/04/11 14:07:58;;;;;;;10.70;5.47;;;;;;;;;;5095276;28;20036;-80
2022/04/11 14:10:24;;;;;;;4.30;2.55;;;;;;;;;;5095169;28;20020;-79
2022/04/11 14:12:49;;;;;;;10.57;6.85;;;;;;;;;;5096557;28;20124;-81
2022/04/11 14:15:15;;;;;;;10.70;7.43;;;;;;;;;;5098205;28;20028;-80
2022/04/11 14:17:40;;;;;;;17.73;9.70;;;;;;;;;;5096990;28;20057;-80
2022/04/11 14:20:07;;;;;;;8.40;5.63;;;;;;;;;;5096316;28;20070;-79
2022/04/11 14:22:33;;;;;;;2.75;2.42;;;;;;;;;;5096761;28;20028;-81
2022/04/11 14:24:58;;;;;;;2.38;1.73;;;;;;;;;;5099097;28;20056;-82
2022/04/11 14:27:24;;;;;;;4.55;3.30;;;;;;;;;;5097387;28;20032;-79
2022/04/11 14:29:50;;;;;;;5.90;3.75;;;;;;;;;;5095561;28;20106;-79
2022/04/11 14:32:15;;;;;;;5.10;2.63;;;;;;;;;;5079075;28;20120;-79
2022/04/11 14:34:41;;;;;;;3.25;2.03;;;;;;;;;;5097118;28;20024;-79
2022/04/11 14:37:06;;;;;;;2.63;2.05;;;;;;;;;;5081228;28;20028;-80
2022/04/11 14:39:33;;;;;;;3.20;2.08;;;;;;;;;;5080104;28;20114;-81
2022/04/11 14:41:59;;;;;;;3.85;1.98;;;;;;;;;;5099913;28;20036;-79
2022/04/11 14:44:25;;;;;;;4.43;2.70;;;;;;;;;;5095093;28;20059;-80
2022/04/11 14:46:50;;;;;;;3.72;1.98;;;;;;;;;;5094941;28;20446;-80
2022/04/11 14:49:16;;;;;;;2.72;2.00;;;;;;;;;;5094123;28;20456;-80
2022/04/11 14:51:41;;;;;;;2.33;1.65;;;;;;;;;;5094145;28;20067;-80
2022/04/11 14:54:07;;;;;;;1.80;1.27;;;;;;;;;;5093256;28;20418;-78
2022/04/11 14:56:32;;;;;;;2.65;1.60;;;;;;;;;;5094522;28;20040;-80
2022/04/11 14:58:58;;;;;;;1.50;1.40;;;;;;;;;;5095531;28;20028;-81
2022/04/11 15:01:24;;;;;;;3.65;1.48;;;;;;;;;;5093187;28;20074;-80
2022/04/11 15:03:50;;;;;;;1.58;1.30;;;;;;;;;;5098880;28;20376;-80
2022/04/11 15:06:16;;;;;;;1.63;1.50;;;;;;;;;;5093155;28;20036;-79
2022/04/11 15:08:41;;;;;;;1.98;1.45;;;;;;;;;;5076453;28;20035;-80
2022/04/11 15:11:07;;;;;;;2.42;1.75;;;;;;;;;;5092744;28;20036;-79
2022/04/11 15:13:33;;;;;;;2.70;1.58;;;;;;;;;;5094363;28;20123;-79
2022/04/11 15:15:59;;;;;;;1.90;1.30;;;;;;;;;;5092955;28;20075;-82
2022/04/11 15:18:25;;;;;;;2.20;1.42;;;;;;;;;;5094601;28;20028;-78
2022/04/11 15:20:50;;;;;;;1.40;1.20;;;;;;;;;;5092762;28;20109;-80
2022/04/11 15:23:16;;;;;;;2.08;1.50;;;;;;;;;;5076856;28;20020;-80
2022/04/11 15:25:41;;;;;;;3.53;1.65;;;;;;;;;;5094227;28;20429;-81
2022/04/11 15:28:06;;;;;;;10.55;5.22;;;;;;;;;;5076207;28;20024;-80
2022/04/11 15:30:32;;;;;;;9.00;3.75;;;;;;;;;;5093958;28;20020;-79
2022/04/11 15:32:57;;;;;;;10.75;5.82;;;;;;;;;;5092936;28;20028;-80
2022/04/11 15:35:24;;;;;;;5.53;3.63;;;;;;;;;;5076366;28;20047;-79
2022/04/11 15:37:49;;;;;;;3.63;2.75;;;;;;;;;;5092740;28;20020;-79
2022/04/11 15:40:15;;;;;;;3.25;2.22;;;;;;;;;;5092896;28;20020;-78
2022/04/11 15:42:42;;;;;;;2.45;1.88;;;;;;;;;;5111325;28;20036;-80
2022/04/11 15:45:09;;;;;;;2.17;1.42;;;;;;;;;;5095942;28;20392;-80